Latest Weather Observations for Lord Howe Island Windy Point

IDN60801

Issued at 2:32 pm EDT Sunday 17 February 2019 (issued every 10 minutes, with the page automatically refreshed every 10 minutes)

About weather observations | Map of weather stations | Latest weather observations for NSW | Other Formats
Station Details ID: 200715 Name: LORD HOWE ISLAND WINDY POINT Lat: -31.54 Lon: 159.07 Height: 4.0 m
Data from the previous 72 hours. | See also: Recent months at Lord Howe Island Windy Point
Date/Time
EDT
Temp
°C
App
Temp
°C
Dew
Point
°C
Rel
Hum
%
Delta-T
°C
Wind Press
QNH
hPa
Press
MSL
hPa
Rain since
9am
mm
Dir  Spd
km/h
Gust
km/h
Spd
kts
Gust
kts
17/02:30pm - - - - - E 30 37 16 20 - - -
17/02:00pm - - - - - E 32 39 17 21 - - -
17/01:30pm - - - - - ESE 30 37 16 20 - - -
17/01:00pm - - - - - E 32 41 17 22 - - -
17/12:30pm - - - - - ESE 15 26 8 14 - - -
17/12:00pm - - - - - ENE 9 17 5 9 - - -
17/11:30am - - - - - ENE 9 17 5 9 - - -
17/11:00am - - - - - ENE 24 39 13 21 - - -
17/10:30am - - - - - ENE 30 35 16 19 - - -
17/10:00am - - - - - ESE 24 33 13 18 - - -
17/09:30am - - - - - E 28 35 15 19 - - -
17/09:00am - - - - - E 28 35 15 19 - - -
17/08:30am - - - - - ESE 26 35 14 19 - - -
17/08:00am - - - - - ESE 24 35 13 19 - - -
17/07:30am - - - - - ESE 19 35 10 19 - - -
17/07:00am - - - - - ESE 22 33 12 18 - - -
17/06:30am - - - - - ESE 28 41 15 22 - - -
17/06:00am - - - - - ESE 20 30 11 16 - - -
17/05:30am - - - - - ESE 17 26 9 14 - - -
17/05:00am - - - - - ESE 20 30 11 16 - - -
17/04:30am - - - - - ESE 24 28 13 15 - - -
17/04:00am - - - - - ESE 24 32 13 17 - - -
17/03:30am - - - - - ESE 24 30 13 16 - - -
17/03:00am - - - - - ESE 22 35 12 19 - - -
17/02:30am - - - - - ESE 19 32 10 17 - - -
17/02:00am - - - - - ESE 17 20 9 11 - - -
17/01:30am - - - - - SE 17 28 9 15 - - -
17/01:00am - - - - - ESE 24 32 13 17 - - -
17/12:30am - - - - - ESE 20 30 11 16 - - -
17/12:00am - - - - - ESE 11 19 6 10 - - -
 
Date/Time
EDT
Temp
°C
App
Temp
°C
Dew
Point
°C
Rel
Hum
%
Delta-T
°C
Wind Press
QNH
hPa
Press
MSL
hPa
Rain since
9am
mm
Dir  Spd
km/h
Gust
km/h
Spd
kts
Gust
kts
16/11:30pm - - - - - SE 15 22 8 12 - - -
16/11:00pm - - - - - ESE 28 50 15 27 - - -
16/10:50pm - - - - - ESE 28 56 15 30 - - -
16/10:30pm - - - - - E 24 32 13 17 - - -
16/10:00pm - - - - - ESE 28 35 15 19 - - -
16/09:30pm - - - - - ESE 28 37 15 20 - - -
16/09:00pm - - - - - ESE 28 44 15 24 - - -
16/08:30pm - - - - - ESE 28 41 15 22 - - -
16/08:00pm - - - - - ESE 28 43 15 23 - - -
16/07:38pm - - - - - ESE 28 46 15 25 - - -
16/07:30pm - - - - - ESE 28 41 15 22 - - -
16/07:00pm - - - - - SE 15 28 8 15 - - -
16/06:35pm - - - - - ESE 28 46 15 25 - - -
16/06:30pm - - - - - ESE 32 46 17 25 - - -
16/06:00pm - - - - - ESE 28 39 15 21 - - -
16/05:30pm - - - - - ESE 32 44 17 24 - - -
16/05:00pm - - - - - ESE 28 37 15 20 - - -
16/04:30pm - - - - - ESE 32 43 17 23 - - -
16/04:00pm - - - - - ESE 35 44 19 24 - - -
16/03:30pm - - - - - ESE 37 46 20 25 - - -
16/03:00pm - - - - - ESE 35 46 19 25 - - -
16/02:30pm - - - - - ESE 33 44 18 24 - - -
16/02:00pm - - - - - ESE 35 46 19 25 - - -
16/01:30pm - - - - - ESE 35 48 19 26 - - -
16/01:00pm - - - - - ESE 33 43 18 23 - - -
16/12:30pm - - - - - ESE 37 46 20 25 - - -
16/12:12pm - - - - - E 39 57 21 31 - - -
16/12:00pm - - - - - ESE 33 46 18 25 - - -
16/11:30am - - - - - ESE 33 44 18 24 - - -
16/11:00am - - - - - ESE 35 48 19 26 - - -
16/10:30am - - - - - ESE 37 46 20 25 - - -
16/10:00am - - - - - E 35 56 19 30 - - -
16/09:55am - - - - - ESE 37 56 20 30 - - -
16/09:30am - - - - - E 37 50 20 27 - - -
16/09:00am - - - - - ESE 35 48 19 26 - - -
16/08:35am - - - - - ESE 32 50 17 27 - - -
16/08:30am - - - - - ESE 28 44 15 24 - - -
16/08:05am - - - - - ESE 32 50 17 27 - - -
16/08:00am - - - - - E 35 48 19 26 - - -
16/07:30am - - - - - ESE 30 44 16 24 - - -
16/07:00am - - - - - ESE 33 50 18 27 - - -
16/06:30am - - - - - ESE 33 52 18 28 - - -
16/06:00am - - - - - ESE 30 46 16 25 - - -
16/05:30am - - - - - ESE 33 43 18 23 - - -
16/05:08am - - - - - ESE 28 56 15 30 - - -
16/05:00am - - - - - ESE 22 56 12 30 - - -
16/04:30am - - - - - ESE 30 44 16 24 - - -
16/04:00am - - - - - ESE 30 54 16 29 - - -
16/03:32am - - - - - ESE 28 50 15 27 - - -
16/03:30am - - - - - ESE 28 44 15 24 - - -
16/03:00am - - - - - ESE 32 43 17 23 - - -
16/02:30am - - - - - ESE 30 50 16 27 - - -
16/02:23am - - - - - E 30 50 16 27 - - -
16/02:00am - - - - - ESE 26 44 14 24 - - -
16/01:30am - - - - - ESE 24 35 13 19 - - -
16/01:00am - - - - - ESE 28 54 15 29 - - -
16/12:30am - - - - - ESE 32 50 17 27 - - -
16/12:21am - - - - - ESE 30 50 16 27 - - -
16/12:00am - - - - - E 35 44 19 24 - - -
 
Date/Time
EDT
Temp
°C
App
Temp
°C
Dew
Point
°C
Rel
Hum
%
Delta-T
°C
Wind Press
QNH
hPa
Press
MSL
hPa
Rain since
9am
mm
Dir  Spd
km/h
Gust
km/h
Spd
kts
Gust
kts
15/11:30pm - - - - - ESE 33 43 18 23 - - -
15/11:00pm - - - - - ESE 30 41 16 22 - - -
15/10:30pm - - - - - ESE 32 43 17 23 - - -
15/10:04pm - - - - - ESE 30 59 16 32 - - -
15/10:00pm - - - - - ESE 32 59 17 32 - - -
15/09:30pm - - - - - ESE 32 56 17 30 - - -
15/09:00pm - - - - - ESE 32 54 17 29 - - -
15/08:50pm - - - - - ESE 28 48 15 26 - - -
15/08:44pm - - - - - ESE 28 54 15 29 - - -
15/08:30pm - - - - - E 37 63 20 34 - - -
15/08:00pm - - - - - ESE 35 59 19 32 - - -
15/07:42pm - - - - - ESE 33 59 18 32 - - -
15/07:35pm - - - - - ESE 43 69 23 37 - - -
15/07:30pm - - - - - E 41 63 22 34 - - -
15/07:00pm - - - - - ESE 37 69 20 37 - - -
15/06:30pm - - - - - E 35 65 19 35 - - -
15/06:00pm - - - - - E 32 50 17 27 - - -
15/05:33pm - - - - - ESE 33 56 18 30 - - -
15/05:30pm - - - - - ESE 32 56 17 30 - - -
15/05:00pm - - - - - ESE 33 61 18 33 - - -
15/04:30pm - - - - - ESE 35 61 19 33 - - -
15/04:00pm - - - - - ESE 32 52 17 28 - - -
15/03:43pm - - - - - ESE 32 50 17 27 - - -
15/03:30pm - - - - - E 33 48 18 26 - - -
15/03:00pm - - - - - ESE 30 52 16 28 - - -
15/02:30pm - - - - - ESE 32 61 17 33 - - -
15/02:00pm - - - - - ESE 37 56 20 30 - - -
15/01:35pm - - - - - ESE 30 52 16 28 - - -
15/01:30pm - - - - - ESE 30 50 16 27 - - -
15/01:00pm - - - - - ESE 30 54 16 29 - - -
15/12:33pm - - - - - ESE 30 54 16 29 - - -
15/12:30pm - - - - - ESE 32 54 17 29 - - -
15/12:04pm - - - - - E 30 50 16 27 - - -
15/12:00pm - - - - - E 37 50 20 27 - - -
15/11:50am - - - - - SE 20 46 11 25 - - -
15/11:30am - - - - - SE 20 50 11 27 - - -
15/11:18am - - - - - ESE 28 52 15 28 - - -
15/11:13am - - - - - E 26 46 14 25 - - -
15/11:00am - - - - - SE 20 44 11 24 - - -
15/10:30am - - - - - S 17 33 9 18 - - -
15/10:00am - - - - - S 17 28 9 15 - - -
15/09:30am - - - - - SE 19 35 10 19 - - -
15/09:10am - - - - - ESE 19 46 10 25 - - -
15/09:00am - - - - - ESE 22 41 12 22 - - -
15/08:30am - - - - - SE 19 30 10 16 - - -
15/08:10am - - - - - ESE 28 48 15 26 - - -
15/08:00am - - - - - ESE 26 52 14 28 - - -
15/07:30am - - - - - ESE 30 52 16 28 - - -
15/07:09am - - - - - ESE 28 48 15 26 - - -
15/07:00am - - - - - ESE 24 43 13 23 - - -
15/06:38am - - - - - SE 28 46 15 25 - - -
15/06:30am - - - - - SE 28 43 15 23 - - -
15/06:13am - - - - - ESE 26 52 14 28 - - -
15/06:00am - - - - - ESE 22 39 12 21 - - -
15/05:30am - - - - - ESE 30 50 16 27 - - -
15/05:21am - - - - - ESE 28 48 15 26 - - -
15/05:00am - - - - - SE 24 37 13 20 - - -
15/04:37am - - - - - ESE 28 48 15 26 - - -
15/04:30am - - - - - ESE 26 48 14 26 - - -
15/04:00am - - - - - ESE 22 39 12 21 - - -
15/03:30am - - - - - ESE 26 39 14 21 - - -
15/03:01am - - - - - ESE 28 46 15 25 - - -
15/03:00am - - - - - ESE 26 46 14 25 - - -
15/02:30am - - - - - SE 28 41 15 22 - - -
15/02:00am - - - - - ESE 32 50 17 27 - - -
15/01:30am - - - - - ESE 30 50 16 27 - - -
15/01:24am - - - - - ESE 32 50 17 27 - - -
15/01:00am - - - - - ESE 24 43 13 23 - - -
15/12:30am - - - - - ESE 28 44 15 24 - - -
15/12:15am - - - - - ESE 28 48 15 26 - - -
15/12:00am - - - - - ESE 24 44 13 24 - - -
 
Date/Time
EDT
Temp
°C
App
Temp
°C
Dew
Point
°C
Rel
Hum
%
Delta-T
°C
Wind Press
QNH
hPa
Press
MSL
hPa
Rain since
9am
mm
Dir  Spd
km/h
Gust
km/h
Spd
kts
Gust
kts
14/11:30pm - - - - - ESE 26 43 14 23 - - -
14/11:00pm - - - - - ESE 24 37 13 20 - - -
14/10:41pm - - - - - ESE 28 46 15 25 - - -
14/10:30pm - - - - - SE 24 37 13 20 - - -
14/10:08pm - - - - - ESE 28 50 15 27 - - -
14/10:00pm - - - - - ESE 28 43 15 23 - - -
14/09:30pm - - - - - ESE 24 43 13 23 - - -
14/09:00pm - - - - - ESE 24 37 13 20 - - -
14/08:43pm - - - - - SE 28 46 15 25 - - -
14/08:30pm - - - - - ESE 32 46 17 25 - - -
14/08:00pm - - - - - ESE 30 43 16 23 - - -
14/07:36pm - - - - - SE 28 50 15 27 - - -
14/07:30pm - - - - - ESE 28 43 15 23 - - -
14/07:00pm - - - - - ESE 30 48 16 26 - - -
14/06:30pm - - - - - ESE 28 48 15 26 - - -
14/06:09pm - - - - - ESE 30 48 16 26 - - -
14/06:00pm - - - - - ESE 32 46 17 25 - - -
14/05:30pm - - - - - ESE 33 54 18 29 - - -
14/05:00pm - - - - - ESE 32 50 17 27 - - -
14/04:30pm - - - - - ESE 30 48 16 26 - - -
14/04:01pm - - - - - ESE 28 46 15 25 - - -
14/04:00pm - - - - - ESE 26 44 14 24 - - -
14/03:43pm - - - - - ESE 28 48 15 26 - - -
14/03:30pm - - - - - SE 17 33 9 18 - - -
14/03:00pm - - - - - ESE 24 39 13 21 - - -

Other Formats:

Comma delimited format used in spreadsheet applications
http://www.bom.gov.au/fwo/IDN60801/IDN60801.95995.axf

JavaScript Object Notation format (JSON) in row-major order
http://www.bom.gov.au/fwo/IDN60801/IDN60801.95995.json